Time;durP1;ratioP1;P1;durP2;ratioP2;P2;SDS_P1;SDS_P2;PMS_P1;PMS_P2;Temp;Humidity;BMP_temperature;BMP_pressure;BME280_temperature;BME280_humidity;BME280_pressure;Samples;Min_cycle;Max_cycle;Signal;HPM_P1;HPM_P2
2021/10/07 00:01:32;;;;;;;9.33;8.43;;;12.00;99.90;;;;;;5097953;28;20463;-70
2021/10/07 00:04:01;;;;;;;11.47;8.70;;;12.00;99.90;;;;;;5098082;28;20463;-70
2021/10/07 00:06:28;;;;;;;9.90;7.67;;;12.00;99.90;;;;;;5097570;28;20489;-70
2021/10/07 00:08:55;;;;;;;9.20;8.10;;;12.00;99.90;;;;;;5098006;28;20461;-70
2021/10/07 00:11:21;;;;;;;10.70;7.90;;;11.90;99.90;;;;;;5098282;28;20457;-70
2021/10/07 00:13:49;;;;;;;11.33;7.47;;;12.00;99.90;;;;;;5097587;28;20459;-70
2021/10/07 00:16:16;;;;;;;9.47;8.07;;;11.90;99.90;;;;;;5097720;28;20464;-70
2021/10/07 00:18:43;;;;;;;14.00;8.53;;;11.90;99.90;;;;;;5097781;28;20527;-70
2021/10/07 00:21:11;;;;;;;12.83;7.93;;;11.90;99.90;;;;;;5097020;28;20462;-70
2021/10/07 00:23:45;;;;;;;10.20;7.50;;;11.90;99.90;;;;;;5097211;28;20477;-70
2021/10/07 00:26:11;;;;;;;10.47;7.17;;;11.90;99.90;;;;;;5097548;28;20833;-70
2021/10/07 00:28:38;;;;;;;7.83;6.90;;;11.90;99.90;;;;;;5097651;28;20469;-70
2021/10/07 00:31:11;;;;;;;8.13;6.90;;;11.80;99.90;;;;;;5097535;28;20470;-70
2021/10/07 00:33:44;;;;;;;8.37;6.97;;;11.80;99.90;;;;;;5097179;28;20535;-70
2021/10/07 00:36:15;;;;;;;12.70;7.57;;;11.80;99.90;;;;;;5097687;28;20879;-70
2021/10/07 00:41:26;;;;;;;8.07;6.67;;;11.80;99.90;;;;;;5096623;28;20483;-70
2021/10/07 00:43:52;;;;;;;6.47;5.80;;;11.80;99.90;;;;;;5096032;28;20511;-71
2021/10/07 00:46:20;;;;;;;9.83;6.87;;;11.80;99.90;;;;;;5095779;28;20474;-71
2021/10/07 00:48:47;;;;;;;7.10;6.40;;;11.80;99.90;;;;;;5095546;28;20460;-71
2021/10/07 00:51:14;;;;;;;8.37;6.33;;;11.80;99.90;;;;;;5095555;28;20470;-71
2021/10/07 00:53:40;;;;;;;9.43;6.93;;;11.80;99.90;;;;;;5095443;28;20898;-71
2021/10/07 00:56:07;;;;;;;7.83;6.40;;;11.80;99.90;;;;;;5095361;28;20910;-71
2021/10/07 00:58:34;;;;;;;9.77;6.53;;;11.70;99.90;;;;;;5095461;28;20457;-71
2021/10/07 01:01:01;;;;;;;7.00;6.33;;;11.70;99.90;;;;;;5095592;28;20457;-71
2021/10/07 01:03:32;;;;;;;7.07;6.40;;;11.70;99.90;;;;;;5095634;28;20494;-71
2021/10/07 01:06:00;;;;;;;7.43;6.57;;;11.70;99.90;;;;;;5095484;28;20464;-71
2021/10/07 01:08:27;;;;;;;8.80;6.23;;;11.70;99.90;;;;;;5095413;28;20465;-71
2021/10/07 01:10:54;;;;;;;8.60;7.00;;;11.70;99.90;;;;;;5095292;28;20518;-71
2021/10/07 01:13:20;;;;;;;8.30;6.30;;;11.70;99.90;;;;;;5095387;28;20875;-72
2021/10/07 01:15:48;;;;;;;11.30;6.60;;;11.60;99.90;;;;;;5095355;28;20457;-71
2021/10/07 01:18:15;;;;;;;8.13;7.33;;;11.60;99.90;;;;;;5095440;28;20935;-71
2021/10/07 01:20:43;;;;;;;6.80;6.20;;;11.60;99.90;;;;;;5095339;28;20450;-71
2021/10/07 01:23:10;;;;;;;8.10;6.50;;;11.60;99.90;;;;;;5094789;28;20491;-72
2021/10/07 01:25:36;;;;;;;9.10;6.97;;;11.60;99.90;;;;;;5095508;28;20491;-71
2021/10/07 01:28:03;;;;;;;11.80;7.50;;;11.60;99.90;;;;;;5095006;28;20520;-71
2021/10/07 01:30:30;;;;;;;9.80;6.60;;;11.50;99.90;;;;;;5095318;28;20768;-73
2021/10/07 01:32:58;;;;;;;11.10;8.50;;;11.50;99.90;;;;;;5095489;28;20469;-72
2021/10/07 01:35:24;;;;;;;7.30;6.70;;;11.50;99.90;;;;;;5095115;28;20907;-72
2021/10/07 01:37:53;;;;;;;8.67;7.03;;;11.50;99.90;;;;;;5095319;28;20789;-73
2021/10/07 01:40:20;;;;;;;7.70;7.00;;;11.50;99.90;;;;;;5094805;28;20461;-72
2021/10/07 01:42:47;;;;;;;11.20;7.80;;;11.50;99.90;;;;;;5095251;28;20460;-73
2021/10/07 01:45:15;;;;;;;7.90;7.10;;;11.40;99.90;;;;;;5094420;28;20461;-72
2021/10/07 01:47:42;;;;;;;6.97;6.27;;;11.40;99.90;;;;;;5094779;28;20464;-73
2021/10/07 01:50:11;;;;;;;7.63;6.90;;;11.40;99.90;;;;;;5094998;28;20467;-72
2021/10/07 01:52:38;;;;;;;10.53;7.33;;;11.40;99.90;;;;;;5094776;28;20471;-72
2021/10/07 01:55:08;;;;;;;9.33;7.50;;;11.40;99.90;;;;;;5094650;28;20453;-72
2021/10/07 01:57:36;;;;;;;9.87;7.43;;;11.30;99.90;;;;;;5094777;28;20922;-72
2021/10/07 02:00:03;;;;;;;8.70;7.97;;;11.30;99.90;;;;;;5094877;28;20470;-71
2021/10/07 02:02:29;;;;;;;9.93;6.80;;;11.30;99.90;;;;;;5094907;28;20455;-72
2021/10/07 02:04:56;;;;;;;9.40;7.37;;;11.30;99.90;;;;;;5094757;28;20454;-72
2021/10/07 02:07:24;;;;;;;9.37;7.60;;;11.20;99.90;;;;;;5094677;28;20804;-72
2021/10/07 02:09:51;;;;;;;12.70;7.70;;;11.10;99.90;;;;;;5094090;28;20459;-73
2021/10/07 02:12:21;;;;;;;11.13;7.63;;;11.10;99.90;;;;;;5094462;28;20464;-72
2021/10/07 02:14:48;;;;;;;11.80;8.47;;;11.10;99.90;;;;;;5094279;28;20951;-72
2021/10/07 02:17:14;;;;;;;11.17;7.60;;;11.00;99.90;;;;;;5094426;28;20464;-72
2021/10/07 02:19:41;;;;;;;9.03;7.80;;;11.00;99.90;;;;;;5094535;28;20460;-72
2021/10/07 02:22:08;;;;;;;10.43;8.00;;;11.00;99.90;;;;;;5094146;28;20492;-72
2021/10/07 02:24:35;;;;;;;9.90;7.53;;;11.00;99.90;;;;;;5093951;28;20888;-72
2021/10/07 02:27:02;;;;;;;11.43;8.20;;;11.00;99.90;;;;;;5094814;28;20972;-72
2021/10/07 02:29:30;;;;;;;8.80;7.60;;;11.00;99.90;;;;;;5094386;28;20908;-72
2021/10/07 02:31:57;;;;;;;10.93;7.60;;;11.00;99.90;;;;;;5094292;28;20463;-72
2021/10/07 02:34:24;;;;;;;11.00;8.30;;;11.00;99.90;;;;;;5094524;28;20459;-72
2021/10/07 02:36:51;;;;;;;9.27;8.03;;;11.00;99.90;;;;;;5094350;28;20910;-72
2021/10/07 02:39:17;;;;;;;10.23;8.80;;;11.00;99.90;;;;;;5094546;28;20837;-72
2021/10/07 02:41:44;;;;;;;10.87;8.23;;;10.90;99.90;;;;;;5094098;28;20450;-72
2021/10/07 02:44:11;;;;;;;9.40;8.50;;;11.00;99.90;;;;;;5094435;28;20822;-72
2021/10/07 02:46:39;;;;;;;13.33;9.00;;;10.90;99.90;;;;;;5093955;28;20916;-72
2021/10/07 02:49:09;;;;;;;11.03;8.87;;;11.00;99.90;;;;;;5094100;28;20458;-72
2021/10/07 02:51:35;;;;;;;9.90;8.57;;;10.90;99.90;;;;;;5094059;28;20454;-72
2021/10/07 02:54:02;;;;;;;8.87;8.07;;;10.90;99.90;;;;;;5094367;28;20481;-72
2021/10/07 02:56:29;;;;;;;8.27;7.47;;;10.90;99.90;;;;;;5093714;28;20587;-72
2021/10/07 02:58:56;;;;;;;8.80;7.57;;;10.90;99.90;;;;;;5097847;28;20840;-72
2021/10/07 03:01:23;;;;;;;10.13;8.40;;;10.90;99.90;;;;;;5097975;28;20457;-72
2021/10/07 03:03:51;;;;;;;9.13;8.10;;;10.90;99.90;;;;;;5097826;28;20454;-72
2021/10/07 03:06:18;;;;;;;12.50;7.90;;;10.90;99.90;;;;;;5097319;28;20979;-72
2021/10/07 03:08:45;;;;;;;8.40;7.20;;;10.90;99.90;;;;;;5097269;28;20959;-72
2021/10/07 03:11:12;;;;;;;8.73;7.83;;;10.90;99.90;;;;;;5097701;28;20458;-72
2021/10/07 03:13:38;;;;;;;11.57;8.83;;;10.90;99.90;;;;;;5097268;28;20470;-72
2021/10/07 03:16:05;;;;;;;9.27;8.03;;;10.90;99.90;;;;;;5097377;28;20451;-72
2021/10/07 03:18:32;;;;;;;8.90;7.70;;;10.90;99.90;;;;;;5097467;28;20592;-72
2021/10/07 03:21:00;;;;;;;8.90;8.10;;;10.90;99.90;;;;;;5097517;28;20466;-72
2021/10/07 03:23:27;;;;;;;13.77;8.07;;;10.90;99.90;;;;;;5096894;28;20481;-72
2021/10/07 03:25:53;;;;;;;9.67;7.53;;;10.80;99.90;;;;;;5097210;28;20844;-72
2021/10/07 03:28:20;;;;;;;8.60;7.70;;;10.80;99.90;;;;;;5097325;28;20604;-72
2021/10/07 03:30:47;;;;;;;8.87;7.97;;;10.80;99.90;;;;;;5097400;28;20468;-72
2021/10/07 03:33:13;;;;;;;13.07;7.87;;;10.80;99.90;;;;;;5097273;28;20458;-72
2021/10/07 03:35:40;;;;;;;9.93;8.70;;;10.80;99.90;;;;;;5097318;28;20486;-72
2021/10/07 03:38:08;;;;;;;9.50;7.60;;;10.70;99.90;;;;;;5097079;28;20887;-72
2021/10/07 03:40:35;;;;;;;9.33;8.43;;;10.70;99.90;;;;;;5097018;28;20454;-72
2021/10/07 03:43:02;;;;;;;10.60;8.00;;;10.70;99.90;;;;;;5097128;28;20487;-72
2021/10/07 03:45:29;;;;;;;10.00;7.87;;;10.70;99.90;;;;;;5096926;28;20466;-72
2021/10/07 03:47:55;;;;;;;10.67;8.17;;;10.70;99.90;;;;;;5096910;28;20482;-72
2021/10/07 03:50:22;;;;;;;9.40;7.80;;;10.60;99.90;;;;;;5096833;28;20477;-72
2021/10/07 03:52:49;;;;;;;8.10;7.30;;;10.60;99.90;;;;;;5096923;28;20784;-72
2021/10/07 03:55:17;;;;;;;10.03;8.33;;;10.60;99.90;;;;;;5096802;28;20460;-72
2021/10/07 03:57:43;;;;;;;9.70;8.07;;;10.60;99.90;;;;;;5096796;28;20817;-72
2021/10/07 04:00:11;;;;;;;7.60;6.80;;;10.60;99.90;;;;;;5096664;28;20836;-72
2021/10/07 04:02:38;;;;;;;8.03;6.80;;;10.60;99.90;;;;;;5096792;28;20748;-72
2021/10/07 04:05:05;;;;;;;8.30;7.50;;;10.60;99.90;;;;;;5096217;28;20921;-72
2021/10/07 04:07:32;;;;;;;8.53;7.67;;;10.60;99.90;;;;;;5096181;28;20474;-72
2021/10/07 04:09:59;;;;;;;9.80;8.00;;;10.60;99.90;;;;;;5095674;28;20780;-72
2021/10/07 04:12:27;;;;;;;8.30;7.50;;;10.60;99.90;;;;;;5096800;28;20457;-72
2021/10/07 04:14:54;;;;;;;10.50;8.20;;;10.50;99.90;;;;;;5096010;28;20468;-72
2021/10/07 04:17:20;;;;;;;8.63;7.00;;;10.50;99.90;;;;;;5096908;28;20938;-72
2021/10/07 04:19:47;;;;;;;9.43;7.80;;;10.50;99.90;;;;;;5096494;28;20463;-72
2021/10/07 04:22:14;;;;;;;12.30;7.60;;;10.50;99.90;;;;;;5095883;28;20491;-72
2021/10/07 04:24:40;;;;;;;9.03;7.23;;;10.50;99.90;;;;;;5096102;28;20533;-72
2021/10/07 04:27:07;;;;;;;8.90;7.50;;;10.50;99.90;;;;;;5096000;28;20514;-72
2021/10/07 04:29:35;;;;;;;8.37;7.57;;;10.50;99.90;;;;;;5096291;28;20515;-72
2021/10/07 04:32:02;;;;;;;8.37;7.47;;;10.40;99.90;;;;;;5096142;28;20799;-72
2021/10/07 04:34:28;;;;;;;9.63;7.77;;;10.40;99.90;;;;;;5095955;28;20469;-72
2021/10/07 04:36:55;;;;;;;9.53;7.87;;;10.40;99.90;;;;;;5095471;28;20451;-72
2021/10/07 04:39:22;;;;;;;12.73;8.03;;;10.40;99.90;;;;;;5096083;28;20474;-72
2021/10/07 04:41:48;;;;;;;9.20;7.97;;;10.50;99.90;;;;;;5095858;28;20459;-72
2021/10/07 04:44:15;;;;;;;10.10;7.93;;;10.40;99.90;;;;;;5095489;28;20460;-72
2021/10/07 04:46:43;;;;;;;11.73;9.00;;;10.40;99.90;;;;;;5095808;28;20781;-72
2021/10/07 04:49:10;;;;;;;11.07;8.53;;;10.40;99.90;;;;;;5096109;28;20488;-72
2021/10/07 04:51:37;;;;;;;13.50;10.50;;;10.40;99.90;;;;;;5095471;28;20648;-72
2021/10/07 04:54:03;;;;;;;15.33;11.30;;;10.40;99.90;;;;;;5095617;28;20471;-72
2021/10/07 04:56:30;;;;;;;10.70;8.80;;;10.40;99.90;;;;;;5095569;28;20457;-72
2021/10/07 04:58:57;;;;;;;12.07;8.97;;;10.30;99.90;;;;;;5095573;28;20451;-72
2021/10/07 05:01:23;;;;;;;15.30;9.17;;;10.30;99.90;;;;;;5095646;28;20456;-72
2021/10/07 05:03:54;;;;;;;12.87;8.43;;;10.30;99.90;;;;;;5095349;28;20459;-72
2021/10/07 05:06:21;;;;;;;10.17;8.80;;;10.30;99.90;;;;;;5095333;28;20450;-72
2021/10/07 05:08:48;;;;;;;11.33;7.40;;;10.30;99.90;;;;;;5095296;28;20450;-72
2021/10/07 05:11:14;;;;;;;10.30;7.63;;;10.30;99.90;;;;;;5095206;28;20483;-72
2021/10/07 05:13:41;;;;;;;10.47;7.57;;;10.30;99.90;;;;;;5095148;28;20471;-72
2021/10/07 05:16:08;;;;;;;7.80;7.03;;;10.30;99.90;;;;;;5095391;28;20460;-72
2021/10/07 05:18:35;;;;;;;10.33;8.07;;;10.30;99.90;;;;;;5095363;28;20531;-72
2021/10/07 05:21:03;;;;;;;37.83;27.97;;;10.30;99.90;;;;;;5094942;28;20474;-72
2021/10/07 05:23:30;;;;;;;30.47;23.47;;;10.40;99.90;;;;;;5094737;28;20991;-72
2021/10/07 05:25:57;;;;;;;19.70;16.70;;;10.40;99.90;;;;;;5095111;28;20541;-72
2021/10/07 05:28:23;;;;;;;11.20;9.10;;;10.40;99.90;;;;;;5094866;28;20484;-72
2021/10/07 05:30:51;;;;;;;7.97;7.17;;;10.50;99.90;;;;;;5095106;28;20461;-71
2021/10/07 05:33:19;;;;;;;13.27;8.07;;;10.40;99.90;;;;;;5094682;28;20605;-72
2021/10/07 05:35:46;;;;;;;8.90;8.00;;;10.50;99.90;;;;;;5094575;28;20567;-72
2021/10/07 05:38:14;;;;;;;9.30;8.40;;;10.50;99.90;;;;;;5095158;28;20459;-72
2021/10/07 05:40:40;;;;;;;10.77;8.57;;;10.50;99.90;;;;;;5094835;28;20529;-72
2021/10/07 05:43:09;;;;;;;11.20;8.70;;;10.50;99.90;;;;;;5094877;28;20472;-72
2021/10/07 05:45:39;;;;;;;12.17;9.53;;;10.50;99.90;;;;;;5094851;28;20461;-72
2021/10/07 05:48:06;;;;;;;12.50;9.30;;;10.50;99.90;;;;;;5094579;28;20490;-72
2021/10/07 05:50:33;;;;;;;14.23;11.00;;;10.50;99.90;;;;;;5094250;28;20521;-72
2021/10/07 05:52:59;;;;;;;14.07;10.83;;;10.50;99.90;;;;;;5094351;28;20612;-72
2021/10/07 05:55:31;;;;;;;47.37;33.53;;;10.50;99.90;;;;;;5094729;28;20525;-72
2021/10/07 05:57:58;;;;;;;17.57;14.40;;;10.50;99.90;;;;;;5094663;28;20906;-72
2021/10/07 06:00:24;;;;;;;15.40;10.80;;;10.50;99.90;;;;;;5094549;28;20466;-72
2021/10/07 06:02:51;;;;;;;14.07;10.60;;;10.50;99.90;;;;;;5094534;28;20463;-72
2021/10/07 06:05:18;;;;;;;12.50;10.07;;;10.50;99.90;;;;;;5094660;28;20842;-72
2021/10/07 06:07:45;;;;;;;14.40;11.07;;;10.50;99.90;;;;;;5093993;28;20576;-73
2021/10/07 06:10:14;;;;;;;16.50;10.60;;;10.50;99.90;;;;;;5094198;28;20554;-72
2021/10/07 06:12:43;;;;;;;53.10;36.33;;;10.60;99.90;;;;;;5094284;28;20465;-72
2021/10/07 06:15:10;;;;;;;31.33;24.13;;;10.50;99.90;;;;;;5094389;28;20519;-72
2021/10/07 06:17:37;;;;;;;15.80;12.40;;;10.60;99.90;;;;;;5094072;28;20912;-72
2021/10/07 06:20:08;;;;;;;21.53;11.43;;;10.60;99.90;;;;;;5094072;28;20463;-72
2021/10/07 06:22:35;;;;;;;12.40;11.10;;;10.60;99.90;;;;;;5093851;28;20530;-72
2021/10/07 06:25:01;;;;;;;13.57;9.60;;;10.60;99.90;;;;;;5094099;28;20475;-71
2021/10/07 06:27:29;;;;;;;13.43;9.47;;;10.60;99.90;;;;;;5093972;28;20795;-72
2021/10/07 06:29:57;;;;;;;14.07;10.73;;;10.60;99.90;;;;;;5094521;28;20926;-72
2021/10/07 06:32:23;;;;;;;16.73;10.67;;;10.70;99.90;;;;;;5095742;28;20468;-72
2021/10/07 06:34:50;;;;;;;11.73;10.43;;;10.70;99.90;;;;;;5097440;28;20464;-72
2021/10/07 06:37:17;;;;;;;12.70;10.47;;;10.70;99.90;;;;;;5098195;28;20527;-72
2021/10/07 06:39:43;;;;;;;12.13;10.30;;;10.70;99.90;;;;;;5097881;28;20458;-72
2021/10/07 06:42:10;;;;;;;11.93;10.20;;;10.70;99.90;;;;;;5097911;28;20463;-72
2021/10/07 06:44:37;;;;;;;12.60;9.33;;;10.80;99.90;;;;;;5097501;28;20456;-72
2021/10/07 06:47:05;;;;;;;17.83;10.80;;;10.80;99.90;;;;;;5097951;28;20499;-72
2021/10/07 06:49:32;;;;;;;14.27;9.83;;;10.80;99.90;;;;;;5097701;28;20468;-71
2021/10/07 06:51:59;;;;;;;13.80;10.23;;;10.90;99.90;;;;;;5097782;28;20480;-72
2021/10/07 06:54:27;;;;;;;12.83;10.33;;;10.90;99.90;;;;;;5097383;28;20480;-72
2021/10/07 06:56:54;;;;;;;9.93;8.90;;;10.90;99.90;;;;;;5097557;28;20461;-72
2021/10/07 06:59:21;;;;;;;10.73;9.33;;;11.00;99.90;;;;;;5097764;28;20933;-72
2021/10/07 07:01:48;;;;;;;16.10;9.70;;;11.10;99.90;;;;;;5097609;28;20464;-72
2021/10/07 07:04:17;;;;;;;12.10;9.23;;;11.10;99.90;;;;;;5097365;28;20460;-72
2021/10/07 07:06:44;;;;;;;14.00;9.87;;;11.10;99.90;;;;;;5097400;28;20468;-72
2021/10/07 07:09:11;;;;;;;15.03;9.77;;;11.20;99.90;;;;;;5097215;28;20453;-72
2021/10/07 07:11:38;;;;;;;16.90;11.03;;;11.20;99.90;;;;;;5096649;28;20457;-72
2021/10/07 07:14:05;;;;;;;14.33;9.87;;;11.30;99.90;;;;;;5097349;28;20465;-72
2021/10/07 07:16:32;;;;;;;13.20;9.27;;;11.40;99.90;;;;;;5097150;28;20493;-72
2021/10/07 07:18:59;;;;;;;10.07;9.03;;;11.50;99.90;;;;;;5097612;28;20454;-72
2021/10/07 07:21:30;;;;;;;10.67;8.23;;;11.50;99.90;;;;;;5097249;28;20454;-72
2021/10/07 07:23:58;;;;;;;11.77;8.80;;;11.60;99.90;;;;;;5096939;28;20497;-72
2021/10/07 07:26:25;;;;;;;10.90;8.80;;;11.60;99.90;;;;;;5097006;28;20759;-72
2021/10/07 07:28:52;;;;;;;9.90;8.10;;;11.70;99.90;;;;;;5097249;28;20482;-72
2021/10/07 07:31:19;;;;;;;9.57;7.93;;;11.80;99.90;;;;;;5097253;28;20473;-72
2021/10/07 07:33:46;;;;;;;10.20;7.33;;;11.90;99.90;;;;;;5096936;28;20454;-72
2021/10/07 07:36:13;;;;;;;12.90;9.17;;;11.90;99.90;;;;;;5096976;28;20461;-72
2021/10/07 07:38:41;;;;;;;12.20;9.10;;;12.00;99.90;;;;;;5097115;28;20450;-72
2021/10/07 07:41:08;;;;;;;9.53;8.40;;;12.10;99.90;;;;;;5097028;28;20463;-72
2021/10/07 07:43:35;;;;;;;10.50;8.30;;;12.20;99.90;;;;;;5096909;28;20798;-72
2021/10/07 07:46:02;;;;;;;10.80;8.93;;;12.20;99.90;;;;;;5097123;28;20461;-72
2021/10/07 07:48:28;;;;;;;10.70;8.60;;;12.30;99.90;;;;;;5096609;28;20485;-72
2021/10/07 07:50:55;;;;;;;13.53;8.80;;;12.40;99.90;;;;;;5096553;28;20466;-72
2021/10/07 07:53:22;;;;;;;9.30;7.57;;;12.50;99.90;;;;;;5096486;28;20462;-72
2021/10/07 07:55:50;;;;;;;9.80;7.40;;;12.50;99.90;;;;;;5096422;28;20462;-72
2021/10/07 07:58:18;;;;;;;11.20;7.97;;;12.60;99.90;;;;;;5096364;28;20459;-72
2021/10/07 08:00:46;;;;;;;9.47;7.57;;;12.70;99.90;;;;;;5096434;28;20457;-72
2021/10/07 08:03:13;;;;;;;10.47;8.03;;;12.70;99.90;;;;;;5096490;28;20776;-71
2021/10/07 08:05:40;;;;;;;8.53;7.73;;;12.80;99.90;;;;;;5096440;28;20458;-72
2021/10/07 08:08:06;;;;;;;12.23;8.00;;;12.80;99.90;;;;;;5096020;28;20808;-72
2021/10/07 08:10:33;;;;;;;9.10;7.90;;;12.90;99.90;;;;;;5096342;28;20460;-72
2021/10/07 08:13:02;;;;;;;9.07;8.17;;;13.00;99.90;;;;;;5095964;28;20466;-72
2021/10/07 08:15:29;;;;;;;13.77;8.90;;;13.00;99.90;;;;;;5096159;28;20808;-72
2021/10/07 08:17:56;;;;;;;11.10;9.10;;;13.10;99.90;;;;;;5096263;28;20452;-72
2021/10/07 08:20:23;;;;;;;10.73;8.30;;;13.10;99.90;;;;;;5095846;28;20470;-72
2021/10/07 08:22:50;;;;;;;15.30;8.67;;;13.20;99.90;;;;;;5095647;28;20486;-72
2021/10/07 08:25:19;;;;;;;10.67;8.70;;;13.30;99.90;;;;;;5096124;28;20460;-72
2021/10/07 08:27:46;;;;;;;9.30;8.40;;;13.40;99.90;;;;;;5096186;28;20485;-72
2021/10/07 08:30:16;;;;;;;9.73;8.20;;;13.40;99.90;;;;;;5095981;28;20466;-72
2021/10/07 08:32:44;;;;;;;10.50;8.20;;;13.50;99.90;;;;;;5095961;28;20480;-72
2021/10/07 08:35:14;;;;;;;12.70;8.40;;;13.60;99.90;;;;;;5095820;28;20496;-73
2021/10/07 08:37:40;;;;;;;15.73;7.67;;;13.70;99.90;;;;;;5097394;28;20470;-72
2021/10/07 08:40:10;;;;;;;9.63;8.10;;;13.80;99.90;;;;;;5096292;28;20450;-73
2021/10/07 08:42:37;;;;;;;12.63;6.43;;;13.90;99.90;;;;;;5096596;28;20454;-73
2021/10/07 08:45:04;;;;;;;8.80;6.53;;;14.00;99.90;;;;;;5096031;28;20888;-73
2021/10/07 08:47:33;;;;;;;8.73;6.77;;;14.00;99.90;;;;;;5096136;28;20464;-72
2021/10/07 08:50:02;;;;;;;11.93;6.77;;;14.10;99.90;;;;;;5096599;28;20454;-72
2021/10/07 08:52:28;;;;;;;10.63;6.40;;;14.20;99.90;;;;;;5095656;28;20927;-72
2021/10/07 08:54:55;;;;;;;10.20;6.90;;;14.30;99.90;;;;;;5095471;28;20459;-73
2021/10/07 08:57:22;;;;;;;9.00;7.17;;;14.40;99.90;;;;;;5095926;28;20472;-73
2021/10/07 08:59:49;;;;;;;11.07;7.67;;;14.50;99.90;;;;;;5095455;28;20460;-73
2021/10/07 09:02:26;;;;;;;8.33;7.40;;;14.50;99.90;;;;;;5095393;28;20456;-75
2021/10/07 09:04:55;;;;;;;9.27;7.07;;;14.60;99.90;;;;;;5095505;28;20457;-73
2021/10/07 09:07:22;;;;;;;10.90;7.37;;;14.70;99.90;;;;;;5094610;28;20991;-72
2021/10/07 09:09:56;;;;;;;9.53;7.27;;;14.80;99.90;;;;;;5095176;28;20454;-73
2021/10/07 09:12:22;;;;;;;10.83;6.13;;;14.90;99.90;;;;;;5095333;28;20453;-72
2021/10/07 09:14:51;;;;;;;9.63;6.30;;;15.00;99.90;;;;;;5095248;28;20467;-73
2021/10/07 09:17:19;;;;;;;6.47;5.87;;;15.10;99.90;;;;;;5094462;28;21014;-73
2021/10/07 09:19:47;;;;;;;8.37;6.30;;;15.20;99.90;;;;;;5094799;28;20466;-72
2021/10/07 09:22:18;;;;;;;10.10;8.70;;;15.30;99.90;;;;;;5094741;28;20546;-72
2021/10/07 09:24:46;;;;;;;7.70;6.90;;;15.40;99.90;;;;;;5095081;28;20442;-72
2021/10/07 09:27:15;;;;;;;9.80;7.40;;;15.50;99.90;;;;;;5094794;28;20898;-73
2021/10/07 09:29:51;;;;;;;8.33;6.40;;;15.50;99.90;;;;;;5095117;28;20537;-72
2021/10/07 09:32:26;;;;;;;11.23;5.83;;;15.60;99.90;;;;;;5094682;28;20449;-72
2021/10/07 09:34:54;;;;;;;8.93;6.77;;;15.70;99.90;;;;;;5094546;28;20504;-72
2021/10/07 09:37:30;;;;;;;7.87;5.33;;;15.70;99.90;;;;;;5094750;28;20791;-73
2021/10/07 09:39:59;;;;;;;10.53;6.37;;;15.80;99.90;;;;;;5094860;28;20891;-73
2021/10/07 09:42:29;;;;;;;8.17;6.30;;;15.90;99.90;;;;;;5094171;28;20453;-73
2021/10/07 09:45:05;;;;;;;9.33;6.67;;;16.00;99.90;;;;;;5094494;28;20457;-73
2021/10/07 09:47:33;;;;;;;11.60;5.83;;;16.00;99.90;;;;;;5094696;28;20443;-73
2021/10/07 09:50:18;;;;;;;6.60;5.50;;;16.10;99.90;;;;;;5094770;28;20536;-73
2021/10/07 09:52:48;;;;;;;8.33;5.00;;;16.20;99.90;;;;;;5094800;28;20891;-73
2021/10/07 09:55:17;;;;;;;5.87;5.27;;;16.20;99.90;;;;;;5094407;28;20446;-73
2021/10/07 09:57:53;;;;;;;7.83;4.33;;;16.30;99.90;;;;;;5094644;28;20460;-72
2021/10/07 10:00:20;;;;;;;10.93;5.80;;;16.30;99.90;;;;;;5094581;28;20457;-72
2021/10/07 10:02:47;;;;;;;6.17;5.20;;;16.30;99.90;;;;;;5094605;28;20466;-72
2021/10/07 10:05:14;;;;;;;7.20;4.93;;;16.40;99.90;;;;;;5094635;28;20531;-72
2021/10/07 10:07:42;;;;;;;10.83;5.63;;;16.50;99.90;;;;;;5095522;28;20485;-73
2021/10/07 10:10:11;;;;;;;6.03;4.83;;;16.50;99.90;;;;;;5098086;28;20465;-72
2021/10/07 10:12:38;;;;;;;5.40;4.57;;;16.70;99.90;;;;;;5097583;28;20453;-73
2021/10/07 10:15:06;;;;;;;5.80;4.67;;;16.70;99.90;;;;;;5097851;28;20943;-73
2021/10/07 10:17:34;;;;;;;6.07;4.90;;;16.80;99.90;;;;;;5097891;28;20453;-72
2021/10/07 10:20:05;;;;;;;3.70;3.20;;;16.80;99.90;;;;;;5098177;28;20519;-72
2021/10/07 10:22:33;;;;;;;4.57;3.50;;;16.90;99.90;;;;;;5097879;28;21016;-72
2021/10/07 10:25:00;;;;;;;4.00;3.60;;;17.00;99.90;;;;;;5098515;28;20469;-72
2021/10/07 10:27:46;;;;;;;5.43;3.57;;;17.10;99.90;;;;;;5097567;28;20938;-72
2021/10/07 10:30:23;;;;;;;5.80;3.47;;;17.20;99.90;;;;;;5097902;28;20914;-72
2021/10/07 10:32:51;;;;;;;8.00;3.33;;;17.30;99.90;;;;;;5098077;28;20520;-72
2021/10/07 10:35:37;;;;;;;4.90;3.60;;;17.30;99.90;;;;;;5097650;28;20851;-72
2021/10/07 10:38:07;;;;;;;8.13;3.20;;;17.40;99.90;;;;;;5097512;28;20964;-72
2021/10/07 10:40:34;;;;;;;6.70;3.67;;;17.40;99.90;;;;;;5097923;28;20471;-72
2021/10/07 10:43:37;;;;;;;6.73;3.63;;;17.50;99.90;;;;;;5096976;28;20914;-72
2021/10/07 10:46:16;;;;;;;4.57;3.37;;;17.60;99.90;;;;;;5097697;28;20455;-72
2021/10/07 10:48:56;;;;;;;4.20;3.30;;;17.60;99.90;;;;;;5097763;28;20795;-72
2021/10/07 10:51:31;;;;;;;3.30;2.70;;;17.70;99.90;;;;;;5097830;28;20458;-72
2021/10/07 10:54:00;;;;;;;4.63;2.83;;;17.70;99.90;;;;;;5097908;28;20453;-72
2021/10/07 10:56:31;;;;;;;6.60;2.80;;;17.80;99.90;;;;;;5097779;28;20470;-72
2021/10/07 10:59:20;;;;;;;4.67;3.00;;;17.80;99.90;;;;;;5097471;28;20445;-72
2021/10/07 11:02:25;;;;;;;3.50;2.13;;;17.90;99.90;;;;;;5097247;28;20851;-72
2021/10/07 11:04:55;;;;;;;6.13;2.63;;;18.00;99.90;;;;;;5097390;28;20545;-72
2021/10/07 11:07:24;;;;;;;12.90;3.50;;;18.10;99.90;;;;;;5096952;28;21065;-72
2021/10/07 11:09:55;;;;;;;6.33;2.63;;;18.20;99.90;;;;;;5097399;28;20488;-72
2021/10/07 11:12:21;;;;;;;6.83;3.20;;;18.20;99.90;;;;;;5097376;28;20442;-72
2021/10/07 11:14:50;;;;;;;3.87;2.47;;;18.30;99.90;;;;;;5096916;28;20782;-72
2021/10/07 11:17:18;;;;;;;7.63;2.50;;;18.30;99.90;;;;;;5097579;28;20530;-72
2021/10/07 11:19:46;;;;;;;4.27;2.70;;;18.40;99.90;;;;;;5098666;28;20464;-72
2021/10/07 11:22:13;;;;;;;2.77;2.13;;;18.40;99.90;;;;;;5100390;28;20835;-72
2021/10/07 11:24:51;;;;;;;3.80;2.67;;;18.50;99.90;;;;;;5099733;28;20537;-72
2021/10/07 11:27:34;;;;;;;4.97;3.10;;;18.70;99.90;;;;;;5099456;28;20449;-72
2021/10/07 11:30:05;;;;;;;4.47;2.67;;;18.80;99.90;;;;;;5096869;28;20466;-72
2021/10/07 11:32:32;;;;;;;4.10;2.83;;;18.90;99.90;;;;;;5097010;28;20514;-72
2021/10/07 11:35:04;;;;;;;3.90;2.57;;;19.00;99.90;;;;;;5096842;28;20457;-72
2021/10/07 11:37:58;;;;;;;4.17;2.77;;;19.10;99.90;;;;;;5096793;28;20459;-72
2021/10/07 11:40:28;;;;;;;2.53;2.23;;;19.20;99.90;;;;;;5096613;28;20473;-72
2021/10/07 11:42:56;;;;;;;3.33;2.20;;;19.30;99.90;;;;;;5096418;28;20453;-73
2021/10/07 11:45:26;;;;;;;3.93;2.30;;;19.40;99.90;;;;;;5096627;28;20492;-73
2021/10/07 11:47:53;;;;;;;6.20;2.57;;;19.70;99.90;;;;;;5096511;28;20564;-72
2021/10/07 11:50:23;;;;;;;10.70;3.50;;;20.10;99.90;;;;;;5096282;28;20482;-72
2021/10/07 11:52:50;;;;;;;4.03;2.57;;;21.10;99.90;;;;;;5096466;28;20461;-72
2021/10/07 11:55:19;;;;;;;17.67;4.20;;;22.30;99.90;;;;;;5096408;28;20461;-73
2021/10/07 11:57:50;;;;;;;5.40;2.40;;;23.60;99.90;;;;;;5096415;28;20537;-73
2021/10/07 12:00:39;;;;;;;2.97;1.60;;;25.00;99.90;;;;;;5096658;28;20480;-73
2021/10/07 12:03:07;;;;;;;13.93;3.10;;;26.30;99.90;;;;;;5096917;28;20446;-73
2021/10/07 12:05:34;;;;;;;2.67;1.50;;;27.40;99.90;;;;;;5095797;28;20457;-73
2021/10/07 12:08:05;;;;;;;3.70;2.20;;;28.30;99.90;;;;;;5096450;28;20461;-73
2021/10/07 12:10:37;;;;;;;2.43;1.60;;;29.20;93.00;;;;;;5095985;28;20508;-72
2021/10/07 12:13:09;;;;;;;16.87;4.33;;;29.40;90.30;;;;;;5095744;28;20915;-73
2021/10/07 12:15:39;;;;;;;6.37;2.20;;;30.10;91.00;;;;;;5095905;28;20472;-72
2021/10/07 12:18:07;;;;;;;4.43;1.87;;;30.90;84.50;;;;;;5095735;28;20805;-73
2021/10/07 12:20:34;;;;;;;3.87;2.23;;;31.40;75.50;;;;;;5095606;28;20446;-72
2021/10/07 12:23:02;;;;;;;4.27;1.97;;;31.50;70.90;;;;;;5095841;28;20985;-73
2021/10/07 12:25:29;;;;;;;3.70;1.70;;;31.60;66.60;;;;;;5095345;28;20468;-73
2021/10/07 12:28:05;;;;;;;5.63;2.13;;;31.80;63.50;;;;;;5096137;28;20526;-73
2021/10/07 12:30:32;;;;;;;2.20;1.30;;;32.30;61.70;;;;;;5094916;28;20787;-73
2021/10/07 12:33:13;;;;;;;3.63;1.40;;;32.40;56.60;;;;;;5095989;28;20457;-73
2021/10/07 12:35:39;;;;;;;8.37;1.63;;;32.50;55.50;;;;;;5095679;28;20762;-73
2021/10/07 12:38:06;;;;;;;4.80;2.73;;;32.80;56.60;;;;;;5095341;28;20469;-73
2021/10/07 12:40:35;;;;;;;3.97;1.80;;;33.00;56.00;;;;;;5095421;28;20458;-73
2021/10/07 12:43:13;;;;;;;3.60;1.27;;;33.40;54.80;;;;;;5095555;28;20458;-73
2021/10/07 12:46:04;;;;;;;7.70;1.47;;;33.90;53.10;;;;;;5095624;28;20446;-73
2021/10/07 12:48:53;;;;;;;4.10;1.47;;;34.50;52.00;;;;;;5095075;28;20454;-73
2021/10/07 12:51:25;;;;;;;6.80;1.73;;;34.90;50.30;;;;;;5095457;28;20442;-73